FRF Preliminary Data Table
             <-- LAST    Save as TXT file for spreadsheet compatability.      NEXT -->
                    Wind         Atmospheric    Waves-Beach   Waves EOP    Waves at 8m      Waverider       Currents 
                    3732      624    616    604       641         625          3111            630           3819
                 Speed  Dir  Temp   Barom  Rain  Hm0    Tp    Hm0    Tp    Dir Hm0   Tp    Dir Hm0   Tp    Speed Dir
Year Mo Da Time   m/s    N    C      mb     mm    m    sec     m    sec     N   m   sec     N   m   sec     m/s   N

2003 09 17 0016    9     19  22.5  1018.6        1.21 14.22   1.76  14.2                                    0.32 160
2003 09 17 0033                                                                                             0.31 168
2003 09 17 0050                                                                                             0.29 168
2003 09 17 0100    9     19  22.5  1018.4    0   1.15 14.22   1.67  15.1  100  1.84 13.6  111  2.05 13.8             
2003 09 17 0134   10     17  22.5  1017.8        1.14 14.22   1.67  14.2                                    0.18 158
2003 09 17 0153                                                                           115  2.12 13.8             
2003 09 17 0208   11     21  22.6  1017.7        1.15 15.06   1.75  14.2                                    0.30 151
2003 09 17 0242   12     22  22.6  1017.7        1.12 14.22   1.86  14.2                                    0.41 156
2003 09 17 0246                                                                           115  2.38 13.8             
2003 09 17 0316   11     25  22.6  1017.6        1.10 14.22   2.00  13.5                                    0.43 156
2003 09 17 0333                                                                                             0.42 155
2003 09 17 0350                                                                                             0.46 156
2003 09 17 0400   11     27  22.6  1017.7    0   1.10 15.06   2.08  15.1  104  2.35 15.6  112  2.48 15.4             
2003 09 17 0434   11     28  22.6  1017.7        1.10 15.06   2.13  15.1                                    0.43 157
2003 09 17 0453                                                                           118  2.87 15.4             
2003 09 17 0508   12     29  22.7  1017.8        1.11 16.00   2.16  15.1                                    0.36 158
2003 09 17 0542   12     29  22.7  1018.1        1.16 15.06   2.41  15.1                                    0.38 154
2003 09 17 0546                                                                           117  3.12 15.4             
2003 09 17 0616   12     28  22.8  1018.1        1.17 15.06   2.45  16.0                                    0.38 160
2003 09 17 0633                                                                                             0.33 159
2003 09 17 0650                                                                                             0.35 157
2003 09 17 0700   11     28  23.3  1018.2    0   1.25 15.06   2.40  15.1  100  2.63 15.6  118  2.90 13.8             
2003 09 17 0734   11     27  23.5  1018.1        1.26 15.06   2.45  15.1                                    0.35 161
2003 09 17 0753                                                                           114  2.92 15.4             
2003 09 17 0808   11     29  23.3  1018.2        1.35 15.06   2.53  15.1                                    0.29 157
2003 09 17 0842   11     30  24.1  1018.3        1.36 14.22   2.39  15.1                                    0.27 158
2003 09 17 0846                                                                           112  3.00 15.4             
2003 09 17 0916   10     31  24.1  1018.6        1.43 16.00   2.45  15.1                                    0.37 164
2003 09 17 0933                                                                                             0.33 160
2003 09 17 0950                                                                                             0.29 160
2003 09 17 1000   11     38  24.4  1018.6    0   1.50 15.06   2.44  15.1  104  2.62 15.6  121  3.01 15.4             
2003 09 17 1034   11     35  24.4  1018.4        1.52 14.22   2.47  15.1                                    0.25 157
2003 09 17 1053                                                                           114  3.02 15.4             
2003 09 17 1108   11     26  25.0  1018.2        1.50 15.06   2.38  15.1                                    0.33 153
2003 09 17 1142   12     24  25.1  1018.0        1.50 14.22   2.50  14.2                                    0.38 158
2003 09 17 1146                                                                           115  2.95 15.4             
2003 09 17 1216   12     21  25.3  1017.6        1.47 15.06   2.50  14.2                                    0.31 156
2003 09 17 1233                                                                                             0.35 155
2003 09 17 1250                                                                                             0.37 155
2003 09 17 1300   12     19  24.5  1017.4    0   1.45 15.06   2.76  15.1  104  2.88 15.6  114  3.17 15.4             
2003 09 17 1334   13     19  24.1  1017.1        1.46 15.06   2.58  15.1                                    0.41 157
2003 09 17 1353                                                                           117  3.09 15.4             
2003 09 17 1408   14     20  23.8  1016.9        1.38 16.00   2.55  16.0                                    0.40 157
2003 09 17 1442   13     21  23.6  1016.8        1.36 15.06   2.69  15.1                                    0.45 150
2003 09 17 1446                                                                           117  3.27 15.4             
2003 09 17 1516   13     22  23.5  1016.6        1.32 16.00   2.68  15.1                                    0.44 156
2003 09 17 1533                                                                                             0.45 151
2003 09 17 1550                                                                                             0.46 157
2003 09 17 1600   14     20  23.5  1015.8    0   1.31 15.06   2.70  15.1  104  3.06 15.6  112  3.16 15.4             
2003 09 17 1634   14     20  23.5  1015.7        1.28 15.06   2.59   7.1                                    0.46 149
2003 09 17 1653                                                                           116  3.38 15.4             
2003 09 17 1708   14     23  23.3  1015.7        1.25 16.00   2.73  15.1                                    0.45 150
2003 09 17 1742   14     26  23.3  1015.6        1.24 16.00   2.79  16.0                                    0.53 147
2003 09 17 1746                                                                           115  3.56 15.4             
2003 09 17 1816   14     23  23.1  1015.5        1.28 17.07   2.83  16.0                                    0.54 150
2003 09 17 1833                                                                                             0.52 149
2003 09 17 1850                                                                                             0.53 148
2003 09 17 1900   13     24  23.2  1015.4    0   1.29 16.00   3.14  16.0  104  3.14 15.6  119  3.36 15.4             
2003 09 17 1934   13     29  23.3  1015.4        1.33 15.06   2.90  15.1                                    0.51 147
2003 09 17 1953                                                                           115  3.34 15.4             
2003 09 17 2008   14     27  23.3  1015.4        1.33 15.06   2.93  14.2                                    0.45 153
2003 09 17 2042   14     23  23.2  1015.3        1.38 15.06   2.92  14.2                                    0.46 148
2003 09 17 2046                                                                           116  3.38 15.4             
2003 09 17 2116   13     26  23.2  1014.9        1.43 15.06   3.15  15.1                                    0.41 148
2003 09 17 2133                                                                                             0.44 142
2003 09 17 2150                                                                                             0.43 147
2003 09 17 2200   13     29  23.3  1014.5    2   1.47 14.22   3.09   7.3  104  3.31 15.6  117  3.13 13.8             
2003 09 17 2234   13     23  23.3  1013.6        1.48 15.06   2.98  16.0                                    0.45 142
2003 09 17 2253                                                                           119  3.45 15.4             
2003 09 17 2308   14     21  23.3  1012.9        1.58 16.00   3.20  16.0                                    0.43 140
2003 09 17 2342   15     23  23.4  1012.2        1.59 15.06   3.21  15.1                                    0.40 155
2003 09 17 2346                                                                           123  3.77 15.4             
2003 09 18 0001                                                                                             0.34 152
2003 09 18 0016   14     27  23.4  1012.1        1.54 15.06   3.15  16.0                                             
2003 09 18 0018                                                                                             0.34 162
2003 09 18 0035                                                                                             0.43 145
2003 09 18 0100   15     27  23.6  1010.6    0   1.55 15.06   3.23   7.8  102  3.72 15.6  115  3.75 15.4             
2003 09 18 0134   16     33  23.9  1010.0        1.47 16.00   3.25  16.0                                    0.42 148
2003 09 18 0153                                                                           113  4.10 15.4             
2003 09 18 0208   16     34  23.9  1009.4        1.50 16.00   3.21   8.0                                    0.45 144
2003 09 18 0242   17     29  23.8  1008.2        1.48 16.00   3.19  16.0                                    0.37 125
2003 09 18 0246                                                                           113  4.37 15.4             
2003 09 18 0300                              3                                                                       
2003 09 18 0316   17     25  23.7  1007.5        1.49 16.00   3.27  16.0                                    0.26 112
2003 09 18 0333                                                                                             0.18  87
2003 09 18 0350                                                                                             0.23  79
2003 09 18 0400   19     25  23.6  1006.2    5   1.48 17.07   3.26  17.1  104  4.40 15.6  112  4.59 15.4             
2003 09 18 0419                                                                                             0.29  63
2003 09 18 0434   19     28  23.5  1005.2        1.48 17.07   3.15   7.5                                             
2003 09 18 0436                                                                                             0.23  49
2003 09 18 0453                                                                           115  5.08 15.4    0.30  47
2003 09 18 0500                              6                                                                       
2003 09 18 0508   19     29  23.2  1004.4        1.46 18.29   3.13  16.0                                             
2003 09 18 0510                                                                                             0.36  47
2003 09 18 0528                                                                                             0.35  33
2003 09 18 0542   22     30  23.0  1002.9        1.54 16.00   3.44  16.0                                             
2003 09 18 0545                                                                                             0.35  32
2003 09 18 0546                                                                           114  5.71 15.4             
2003 09 18 0600                              9                                                                       
2003 09 18 0602                                                                                             0.39  31
2003 09 18 0616   22     32  22.9  1001.7        1.53         3.27  15.1                                             
2003 09 18 0628                                                                                             0.55  29
2003 09 18 0645                                                                                             0.51  26
2003 09 18 0700   22     47  23.1  1000.4   16   1.59 15.06   3.25  15.1   90  5.11 15.6  109  6.50 15.4             
2003 09 18 0734   22     55  23.3   999.9        1.68 16.00   3.47  14.2                                    0.62  21
2003 09 18 0753                                                                           111  6.97 15.4             
2003 09 18 0800                              6                                                                       
2003 09 18 0808   21     52  23.5   998.9        1.67 18.29   3.36  15.1                                    0.76  18
2003 09 18 0842   22     55  23.5   997.0        1.69 15.06   3.36   9.1                                    0.92  16
2003 09 18 0846                                                                           108  7.21 13.8             
2003 09 18 0900                             10                                                                       
2003 09 18 0916   24     58  23.6   995.3        1.81 15.06   3.39  13.5                                    0.95  16
2003 09 18 0933                                                                                             1.00  13
2003 09 18 0950                                                                                             1.03  13
2003 09 18 1000   25     63  23.7   992.6   12   1.85 14.22   3.69  16.0   88  5.62 15.6  113  7.27 15.4             
2003 09 18 1034   25     71  23.7   991.1        1.88 16.00   3.57  14.2                                    1.13  12
2003 09 18 1053                                                                           110  7.62 15.4             
2003 09 18 1100                              6                                                                       
2003 09 18 1108   26     81  23.8   989.3        1.92 13.47   3.58  16.0                                    1.24  13
2003 09 18 1142   26     88  23.6   987.8        2.03 16.00   3.52  16.0                                    1.25  11
2003 09 18 1146                                                                           106  7.36 15.4             
2003 09 18 1200                             12                                                                       
2003 09 18 1216   28     95  23.4   985.8        1.94 14.22   3.58  14.2                                    1.34  12
2003 09 18 1233                                                                                             1.40  14
2003 09 18 1250                                                                                             1.48  12
2003 09 18 1300   29    105  23.3   984.5   14   2.03 16.00   3.47  13.5   76  5.95 15.6  103  8.12 15.4             
2003 09 18 1334   30    113  23.1   983.7        1.93 13.47   3.42  15.1                                    1.55   9
2003 09 18 1353                                                                           106  7.36 17.4             
2003 09 18 1400                             10                                                                       
2003 09 18 1408   31    123  23.1   984.1        1.89         3.19  15.1                                    1.68  11
2003 09 18 1442   31    130  23.0   984.6        1.87 17.07   3.27  15.1                                    1.69   8
2003 09 18 1446                                                                           108  7.17 15.4             
2003 09 18 1500                              5                                                                       
2003 09 18 1516   30    134  22.8   986.1        1.75 17.07   3.21  16.0                                    1.83   9
2003 09 18 1533                                                                                             1.75   9
2003 09 18 1600   30    140  22.8   988.1    5   1.66         2.97  16.0   70  5.07 15.6  106  7.18 15.4             
2003 09 18 1634   28    146  22.7   989.8        1.60 16.00   2.96  16.0                                             
2003 09 18 1653                                                                           103  6.49 15.4             
2003 09 18 1700                              1                                                                       
2003 09 18 1708   27    151  22.7   991.1        1.58 15.06   2.99   8.5                                             
2003 09 18 1742   27    157  22.4   992.7        1.54 14.22   3.01  14.2                                             
2003 09 18 1746                                                                            97  6.03 15.4             
2003 09 18 1816   24    159  22.1   994.1        1.38 16.00   3.07  13.5                                             
2003 09 18 1900   23    163  22.0   995.8    0   1.37 14.22   3.01  14.2   82  3.98 13.6   93  4.78 13.8             
2003 09 18 1934   20    168  21.9   997.0        1.39 14.22   2.96  12.8                                             
2003 09 18 1953                                                                           100  4.20 13.8             
2003 09 18 2008   19    173  21.9   998.7        1.40 12.80   2.81  14.2                                             
2003 09 18 2042   19    176  22.1   999.9        1.47 14.22   2.92  13.5                                             
2003 09 18 2046                                                                           106  3.57 13.8             
2003 09 18 2116   19    177  22.0  1001.2        1.46 13.47   2.77  12.2                                             
2003 09 18 2200   19    181  22.6  1002.7    0   1.45 13.47   2.58  13.5   86  2.93 12.0   97  3.29 12.5             
2003 09 18 2234   16    186  22.8  1003.9        1.46 12.19   2.54  13.5                                             
2003 09 18 2253                                                                            95  2.92 11.4             
2003 09 18 2308   14    191  23.0  1005.1        1.55 13.47   2.43  12.2                                             
2003 09 18 2342   13    187  23.3  1006.2        1.48 12.19   2.30  12.2                                             
2003 09 18 2346                                                                            95  2.75 12.5             
2003 09 19 0016   14    180  23.7  1006.8        1.48 12.19   2.21  12.8                                             
2003 09 19 0100   14    180  24.4  1007.6    0   1.52 12.80   2.32  12.2   78  2.24 12.0   91  2.47 11.4             
2003 09 19 0134   14    180  24.6  1008.0        1.59 12.19   2.12  11.1                                             
2003 09 19 0153                                                                            91  2.42 11.4             
2003 09 19 0208   14    181  25.0  1008.5        1.53 12.19   2.02  10.7                                             
2003 09 19 0242   15    180  25.1  1008.8        1.50 11.13   1.98  10.7                                             
2003 09 19 0246                                                                            86  2.22 10.5             
2003 09 19 0316   14    182  25.2  1009.4        1.47 10.24   1.96  10.7                                             
2003 09 19 0400   12    181  25.0  1010.3    0   1.42 10.24   1.98  10.2   70  1.85  9.7   88  1.89 10.5             
2003 09 19 0434   12    182  24.8  1010.9        1.39 10.24   1.69   9.8                                             
2003 09 19 0453                                                                            90  1.92  9.8             
2003 09 19 0508   10    184  24.7  1011.7        1.27 10.67   1.68   9.8                                             
2003 09 19 0542   11    183  24.7  1012.4        1.29 10.24   1.72  10.2                                             
2003 09 19 0546                                                                            83  1.91  9.1             
2003 09 19 0616    9    187  24.9  1013.1        1.27 10.24   1.56   9.8                                             
2003 09 19 0700    8    186  25.5  1013.8    0   1.28 10.24   1.64   9.8   68  1.61  8.9   92  1.79  9.8             
2003 09 19 0734    8    188  26.1  1014.3        1.28  9.85   1.51   9.5                                             
2003 09 19 0753                                                                            91  1.85  9.1             
2003 09 19 0808    7    193  26.8  1014.5        1.28  9.48   1.52   9.1                                             
2003 09 19 0842    7    201  27.5  1015.0        1.31  9.14   1.46   8.8                                             
2003 09 19 0846                                                                            93  1.75  9.1             
2003 09 19 0916    7    203  28.1  1015.3        1.30  9.14   1.44   9.1                                             
2003 09 19 1000    7    207  28.6  1015.6    0   1.29  9.14   1.44   9.1   68  1.58  8.9   84  1.71  8.5             
2003 09 19 1034    8    209  29.1  1016.0        1.33  8.53   1.50   8.8                                             
2003 09 19 1053                                                                            93  1.69  8.5             
2003 09 19 1108    7    208  29.5  1016.1        1.25  8.83   1.45   8.5                                             
2003 09 19 1142    6    203  30.0  1016.1        1.24  8.53   1.35   8.5                                             
2003 09 19 1146                                                                            96  1.77  8.5             
2003 09 19 1216    7    205  30.5  1016.1        1.19  8.83   1.40   8.5                                             
2003 09 19 1300    6    204  30.7  1016.1    0   1.18  9.14   1.34   8.8                   93  1.58  9.1             
2003 09 19 1334    6    204  30.8  1016.2        1.12  8.83   1.29   9.1                                             
2003 09 19 1353                                                                            89  1.48  9.1             
2003 09 19 1408    6    203  30.7  1016.1        1.03  8.83   1.24   9.5                                             
2003 09 19 1442    6    202  30.6  1016.1        0.97  9.48   1.18   9.1                                             
2003 09 19 1446                                                                            80  1.34  8.5             
2003 09 19 1516    6    182  30.2  1016.1        0.98  9.14   1.20   9.1                                             
2003 09 19 1600    6    184  29.4  1016.2    0   0.85  9.14   1.12   9.5   84  1.05  9.7   69  1.20  9.1             
2003 09 19 1634    6    184  28.5  1016.8        0.79  9.14   1.06   9.5                                             
2003 09 19 1653                                                                            71  1.16  9.1             
2003 09 19 1708    5    187  27.4  1017.0        0.72  9.14   1.02   9.8                                             
2003 09 19 1742    7    179  26.4  1017.0        0.73  9.48   0.98   8.8                                             
2003 09 19 1746                                                                            68  1.07  9.8             
2003 09 19 1816    7    176  25.6  1017.4        0.65  9.48   0.99   9.8                                             
2003 09 19 1900    7    178  25.2  1017.9    0   0.65  9.85   0.97   9.8   82  0.93  9.7   76  1.04  9.1             
2003 09 19 1934    7    185  25.0  1018.3        0.63  9.48   0.91   9.8                                             
2003 09 19 1953                                                                            73  1.05  9.1             
2003 09 19 2008    5    191  24.6  1018.6        0.59  9.14   0.88   9.5                                             
2003 09 19 2042    4    196  24.2  1018.7        0.59  9.14   0.83   9.1                                             
2003 09 19 2046                                                                            61  0.98  8.5             
2003 09 19 2116    4    195  23.8  1018.8        0.56  8.83   0.94   9.1                                             
2003 09 19 2200    4    193  23.7  1018.8    0   0.58  9.14   0.85   8.8   84  0.91  8.9   70  1.01  9.1             
2003 09 19 2234    3    198  23.6  1019.0        0.60  8.53   0.93   8.8                                             
2003 09 19 2253                                                                            76  1.01  8.5             
2003 09 19 2308    3    197  23.4  1019.0        0.56  8.83   0.97   8.5                                             
2003 09 19 2342    4    206  23.2  1019.0        0.59  8.53   0.95   8.5                                             
2003 09 19 2346                                                                            72  0.96  8.5